Time;durP1;ratioP1;P1;durP2;ratioP2;P2;SDS_P1;SDS_P2;PMS_P1;PMS_P2;Temp;Humidity;BMP_temperature;BMP_pressure;BME280_temperature;BME280_humidity;BME280_pressure;Samples;Min_cycle;Max_cycle;Signal;HPM_P1;HPM_P2
2023/08/09 00:00:48;;;;;;;8.50;3.60;;;14.80;99.90;;;;;;5060572;28;20119;-85
2023/08/09 00:03:14;;;;;;;6.55;3.25;;;14.80;99.90;;;;;;5066635;28;20028;-86
2023/08/09 00:05:40;;;;;;;12.23;3.63;;;14.80;99.90;;;;;;5066406;28;20024;-83
2023/08/09 00:08:05;;;;;;;10.90;3.28;;;14.80;99.90;;;;;;5064419;28;20037;-84
2023/08/09 00:10:33;;;;;;;20.73;3.80;;;14.70;99.90;;;;;;5061171;28;20055;-83
2023/08/09 00:12:58;;;;;;;6.97;3.58;;;14.70;99.90;;;;;;5065376;28;20529;-83
2023/08/09 00:15:24;;;;;;;11.35;3.75;;;14.70;99.90;;;;;;5045877;28;20127;-83
2023/08/09 00:17:49;;;;;;;5.18;2.65;;;14.70;99.90;;;;;;5063861;28;20024;-84
2023/08/09 00:20:15;;;;;;;10.82;3.17;;;14.80;99.90;;;;;;5042588;28;20024;-84
2023/08/09 00:22:41;;;;;;;8.85;3.15;;;14.70;99.90;;;;;;5066239;28;20021;-82
2023/08/09 00:25:10;;;;;;;7.65;2.53;;;14.70;99.90;;;;;;5063374;28;20044;-83
2023/08/09 00:27:36;;;;;;;9.13;2.90;;;14.70;99.90;;;;;;5055959;28;20021;-83
2023/08/09 00:30:03;;;;;;;8.05;3.13;;;14.60;99.90;;;;;;5063931;28;20036;-84
2023/08/09 00:32:29;;;;;;;5.68;3.42;;;14.60;99.90;;;;;;5068501;28;20044;-84
2023/08/09 00:34:54;;;;;;;5.68;2.88;;;14.60;99.90;;;;;;5067011;28;20426;-83
2023/08/09 00:37:21;;;;;;;14.13;3.80;;;14.60;99.90;;;;;;5065650;28;20016;-85
2023/08/09 00:39:48;;;;;;;8.60;3.63;;;14.60;99.90;;;;;;5065517;28;20032;-85
2023/08/09 00:42:15;;;;;;;8.77;3.42;;;14.50;99.90;;;;;;5068606;28;20103;-83
2023/08/09 00:44:41;;;;;;;10.05;3.72;;;14.50;99.90;;;;;;5059673;28;20062;-84
2023/08/09 00:47:07;;;;;;;9.40;3.20;;;14.50;99.90;;;;;;5067048;28;20033;-83
2023/08/09 00:49:39;;;;;;;7.03;3.90;;;14.40;99.90;;;;;;5064563;28;20033;-85
2023/08/09 00:52:05;;;;;;;4.88;3.13;;;14.30;99.90;;;;;;5061410;28;20036;-83
2023/08/09 00:54:31;;;;;;;12.50;4.75;;;14.20;99.90;;;;;;5066119;28;20028;-85
2023/08/09 00:56:57;;;;;;;6.97;3.63;;;14.20;99.90;;;;;;5065126;28;20073;-84
2023/08/09 00:59:23;;;;;;;5.10;3.63;;;14.20;99.90;;;;;;5067520;28;20024;-84
2023/08/09 01:01:49;;;;;;;10.50;4.18;;;14.10;99.90;;;;;;5067110;28;20078;-84
2023/08/09 01:04:16;;;;;;;10.23;3.85;;;14.10;99.90;;;;;;5071131;28;20049;-86
2023/08/09 01:06:48;;;;;;;6.50;3.00;;;14.10;99.90;;;;;;5069277;28;20504;-84
2023/08/09 01:09:26;;;;;;;6.38;2.55;;;14.00;99.90;;;;;;5061997;28;20025;-84
2023/08/09 01:11:59;;;;;;;5.90;2.78;;;14.00;99.90;;;;;;5063275;28;20024;-85
2023/08/09 01:14:27;;;;;;;8.10;4.35;;;14.10;99.90;;;;;;5067678;28;20103;-85
2023/08/09 01:16:55;;;;;;;6.25;3.58;;;14.00;99.90;;;;;;5058981;28;20416;-89
2023/08/09 01:19:34;;;;;;;4.18;3.35;;;14.00;99.90;;;;;;5047815;28;20040;-85
2023/08/09 01:22:06;;;;;;;4.97;2.75;;;14.10;99.90;;;;;;5067569;28;20091;-85
2023/08/09 01:24:33;;;;;;;2.78;2.40;;;14.10;99.90;;;;;;5067988;28;20047;-85
2023/08/09 01:26:59;;;;;;;5.15;3.25;;;14.10;99.90;;;;;;5060014;28;20021;-84
2023/08/09 01:29:25;;;;;;;6.43;3.25;;;14.10;99.90;;;;;;5064859;28;20055;-84
2023/08/09 01:31:51;;;;;;;5.03;2.92;;;14.10;99.90;;;;;;5064151;28;20367;-84
2023/08/09 01:34:17;;;;;;;4.20;2.60;;;14.10;99.90;;;;;;5063705;28;20427;-84
2023/08/09 01:36:50;;;;;;;3.13;2.67;;;14.10;99.90;;;;;;5066350;28;20113;-85
2023/08/09 01:39:24;;;;;;;7.80;3.22;;;14.10;99.90;;;;;;5064136;28;21138;-87
2023/08/09 01:41:51;;;;;;;4.55;3.15;;;14.10;99.90;;;;;;5061850;28;20458;-85
2023/08/09 01:44:17;;;;;;;5.32;3.15;;;14.10;99.90;;;;;;5057095;28;20033;-86
2023/08/09 01:46:44;;;;;;;5.20;3.10;;;14.10;99.90;;;;;;5062641;28;20024;-85
2023/08/09 01:49:09;;;;;;;4.63;2.97;;;14.10;99.90;;;;;;5064885;28;20347;-85
2023/08/09 01:51:35;;;;;;;4.65;2.90;;;14.20;99.90;;;;;;5067770;28;20027;-86
2023/08/09 01:54:01;;;;;;;4.47;2.72;;;14.20;99.90;;;;;;5062696;28;20029;-86
2023/08/09 01:56:27;;;;;;;5.22;3.05;;;14.20;99.90;;;;;;5055016;28;20031;-85
2023/08/09 01:58:52;;;;;;;5.13;2.70;;;14.10;99.90;;;;;;5048926;28;20260;-85
2023/08/09 02:01:18;;;;;;;6.85;4.20;;;14.10;99.90;;;;;;5068188;28;20048;-89
2023/08/09 02:03:43;;;;;;;6.55;3.10;;;14.10;99.90;;;;;;5062201;28;20040;-87
2023/08/09 02:06:09;;;;;;;5.07;3.90;;;14.10;99.90;;;;;;5072533;28;20025;-86
2023/08/09 02:08:35;;;;;;;7.07;3.38;;;14.00;99.90;;;;;;5061822;28;20100;-87
2023/08/09 02:11:00;;;;;;;4.43;3.35;;;14.00;99.90;;;;;;5062724;28;20031;-87
2023/08/09 02:13:26;;;;;;;5.93;3.17;;;14.00;99.90;;;;;;5070861;28;20086;-88
2023/08/09 02:15:51;;;;;;;9.95;5.28;;;14.00;99.90;;;;;;5065165;28;20033;-89
2023/08/09 02:18:17;;;;;;;7.85;4.47;;;14.00;99.90;;;;;;5067608;28;20404;-91
2023/08/09 02:20:43;;;;;;;7.78;3.45;;;13.90;99.90;;;;;;5067700;28;20016;-96
2023/08/09 02:23:09;;;;;;;3.53;3.00;;;13.90;99.90;;;;;;5055355;28;20449;-89
2023/08/09 02:25:34;;;;;;;3.10;2.80;;;13.90;99.90;;;;;;5067873;28;20062;-89
2023/08/09 02:28:00;;;;;;;5.05;3.45;;;13.90;99.90;;;;;;5065473;28;20047;-90
2023/08/09 02:30:25;;;;;;;10.73;4.68;;;13.90;99.90;;;;;;5067288;28;20039;-88
2023/08/09 02:32:51;;;;;;;5.40;3.80;;;13.90;99.90;;;;;;5067695;28;20627;-90
2023/08/09 02:35:16;;;;;;;8.70;4.75;;;13.80;99.90;;;;;;5067774;28;20521;-89
2023/08/09 02:37:42;;;;;;;5.47;3.47;;;13.80;99.90;;;;;;5067773;28;20012;-93
2023/08/09 02:40:10;;;;;;;8.60;4.38;;;13.80;99.90;;;;;;5064268;28;20489;-89
2023/08/09 02:42:37;;;;;;;5.15;3.30;;;13.70;99.90;;;;;;5064441;28;20020;-87
2023/08/09 02:45:03;;;;;;;7.25;3.55;;;13.70;99.90;;;;;;5067351;28;20492;-89
2023/08/09 02:47:28;;;;;;;5.30;2.33;;;13.60;99.90;;;;;;5066494;28;20111;-88
2023/08/09 02:49:54;;;;;;;6.45;2.50;;;13.50;99.90;;;;;;5064637;28;20112;-88
2023/08/09 02:52:20;;;;;;;9.75;3.90;;;13.50;99.90;;;;;;5067302;28;20031;-87
2023/08/09 02:54:47;;;;;;;8.30;2.30;;;13.40;99.90;;;;;;5066659;28;20419;-91
2023/08/09 02:57:14;;;;;;;5.90;2.45;;;13.20;99.90;;;;;;5062884;28;20020;-90
2023/08/09 02:59:40;;;;;;;4.07;2.15;;;13.20;99.90;;;;;;5063235;28;20012;-87
2023/08/09 03:02:06;;;;;;;7.28;2.88;;;13.10;99.90;;;;;;5066859;28;20024;-88
2023/08/09 03:04:33;;;;;;;4.65;2.13;;;13.00;99.90;;;;;;5072796;28;20071;-90
2023/08/09 03:06:58;;;;;;;3.65;2.08;;;13.00;99.90;;;;;;5061288;28;20036;-85
2023/08/09 03:09:24;;;;;;;6.65;2.83;;;12.90;99.90;;;;;;5065079;28;20335;-86
2023/08/09 03:11:50;;;;;;;6.03;2.30;;;12.90;99.90;;;;;;5061329;28;20162;-85
2023/08/09 03:14:15;;;;;;;4.20;1.95;;;12.80;99.90;;;;;;5066220;28;20469;-87
2023/08/09 03:16:41;;;;;;;4.25;2.00;;;12.70;99.90;;;;;;5064447;28;20109;-85
2023/08/09 03:19:08;;;;;;;10.30;3.20;;;12.60;99.90;;;;;;5066008;28;20028;-86
2023/08/09 03:21:34;;;;;;;6.00;1.85;;;12.60;99.90;;;;;;5070143;28;20317;-86
2023/08/09 03:24:00;;;;;;;5.20;2.38;;;12.60;99.90;;;;;;5059499;28;20522;-86
2023/08/09 03:26:26;;;;;;;4.15;1.75;;;12.50;99.90;;;;;;5062014;28;20032;-85
2023/08/09 03:28:52;;;;;;;5.63;1.63;;;12.40;99.90;;;;;;5065588;28;20416;-85
2023/08/09 03:31:18;;;;;;;2.40;1.63;;;12.30;99.90;;;;;;5062841;28;20033;-88
2023/08/09 03:33:44;;;;;;;5.32;2.13;;;12.30;99.90;;;;;;5063563;28;20081;-86
2023/08/09 03:36:09;;;;;;;3.33;1.83;;;12.20;99.90;;;;;;5069394;28;20025;-85
2023/08/09 03:38:35;;;;;;;9.60;2.17;;;12.20;99.90;;;;;;5061639;28;20400;-88
2023/08/09 03:41:01;;;;;;;8.82;2.10;;;12.20;99.90;;;;;;5061174;28;20048;-89
2023/08/09 03:43:27;;;;;;;3.60;1.90;;;12.20;99.90;;;;;;5064628;28;20036;-86
2023/08/09 03:45:52;;;;;;;4.75;2.15;;;12.10;99.90;;;;;;5065227;28;20080;-86
2023/08/09 03:48:19;;;;;;;2.20;1.88;;;12.10;99.90;;;;;;5059486;28;20063;-89
2023/08/09 03:50:44;;;;;;;3.22;2.08;;;12.10;99.90;;;;;;5065860;28;20044;-86
2023/08/09 03:53:10;;;;;;;2.38;1.67;;;12.10;99.90;;;;;;5061938;28;20044;-86
2023/08/09 03:55:36;;;;;;;2.55;1.65;;;12.00;99.90;;;;;;5066580;28;20381;-86
2023/08/09 03:58:01;;;;;;;4.70;2.45;;;12.00;99.90;;;;;;5065422;28;20021;-86
2023/08/09 04:00:27;;;;;;;3.92;1.83;;;12.00;99.90;;;;;;5071856;28;20027;-87
2023/08/09 04:02:53;;;;;;;1.95;1.40;;;12.00;99.90;;;;;;5064578;28;20424;-88
2023/08/09 04:05:19;;;;;;;2.15;1.50;;;12.00;99.90;;;;;;5071099;28;20031;-87
2023/08/09 04:07:45;;;;;;;2.22;1.65;;;11.90;99.90;;;;;;5068819;28;20020;-86
2023/08/09 04:10:12;;;;;;;3.05;1.40;;;11.90;99.90;;;;;;5049744;28;20029;-87
2023/08/09 04:12:38;;;;;;;2.63;1.58;;;11.80;99.90;;;;;;5064408;28;20166;-86
2023/08/09 04:15:04;;;;;;;6.97;3.03;;;11.80;99.90;;;;;;5063511;28;20405;-87
2023/08/09 04:17:31;;;;;;;2.08;1.60;;;11.70;99.90;;;;;;5064078;28;20409;-87
2023/08/09 04:19:57;;;;;;;5.35;1.83;;;11.60;99.90;;;;;;5065913;28;20035;-86
2023/08/09 04:22:23;;;;;;;3.80;1.70;;;11.60;99.90;;;;;;5066030;28;20504;-86
2023/08/09 04:24:50;;;;;;;3.00;1.95;;;11.60;99.90;;;;;;5070288;28;20024;-86
2023/08/09 04:27:17;;;;;;;3.72;1.48;;;11.60;99.90;;;;;;5066216;28;20025;-87
2023/08/09 04:29:43;;;;;;;2.50;1.77;;;11.50;99.90;;;;;;5070702;28;20020;-87
2023/08/09 04:32:09;;;;;;;7.20;1.95;;;11.50;99.90;;;;;;5042528;28;20035;-86
2023/08/09 04:34:34;;;;;;;4.55;2.28;;;11.40;99.90;;;;;;5066849;28;20032;-86
2023/08/09 04:37:00;;;;;;;2.85;1.85;;;11.40;99.90;;;;;;5063243;28;20027;-86
2023/08/09 04:39:27;;;;;;;4.50;2.10;;;11.40;99.90;;;;;;5064646;28;20119;-86
2023/08/09 04:41:53;;;;;;;3.20;1.75;;;11.40;99.90;;;;;;5068937;28;20087;-87
2023/08/09 04:44:19;;;;;;;6.60;1.70;;;11.40;99.90;;;;;;5064838;28;20033;-87
2023/08/09 04:46:45;;;;;;;2.53;1.80;;;11.40;99.90;;;;;;5066940;28;20036;-86
2023/08/09 04:49:12;;;;;;;3.22;1.88;;;11.50;99.90;;;;;;5061939;28;20021;-86
2023/08/09 04:51:37;;;;;;;3.95;1.83;;;11.50;99.90;;;;;;5068768;28;20275;-87
2023/08/09 04:54:03;;;;;;;3.80;1.98;;;11.50;99.90;;;;;;5065531;28;20051;-87
2023/08/09 04:56:29;;;;;;;6.05;1.80;;;11.60;99.90;;;;;;5062798;28;20024;-86
2023/08/09 04:58:54;;;;;;;7.15;1.92;;;11.60;99.90;;;;;;5069390;28;20032;-87
2023/08/09 05:01:20;;;;;;;4.72;1.88;;;11.70;99.90;;;;;;5069001;28;20513;-86
2023/08/09 05:03:47;;;;;;;2.78;1.60;;;11.80;99.90;;;;;;5068462;28;20048;-91
2023/08/09 05:06:13;;;;;;;2.80;1.50;;;11.80;99.90;;;;;;5068548;28;20047;-87
2023/08/09 05:08:38;;;;;;;3.60;2.28;;;11.80;99.90;;;;;;5067452;28;20020;-86
2023/08/09 05:11:04;;;;;;;6.25;2.00;;;11.90;99.90;;;;;;5060898;28;20107;-86
2023/08/09 05:13:29;;;;;;;2.72;1.70;;;11.90;99.90;;;;;;5065038;28;20035;-89
2023/08/09 05:15:55;;;;;;;6.00;2.00;;;11.90;99.90;;;;;;5062661;28;20027;-89
2023/08/09 05:18:22;;;;;;;2.28;1.80;;;12.00;99.90;;;;;;5069806;28;20095;-86
2023/08/09 05:20:48;;;;;;;8.63;2.05;;;12.00;99.90;;;;;;5065996;28;20028;-92
2023/08/09 05:23:13;;;;;;;3.75;2.28;;;12.10;99.90;;;;;;5061314;28;20032;-87
2023/08/09 05:25:39;;;;;;;2.28;1.80;;;12.10;99.90;;;;;;5055492;28;20503;-87
2023/08/09 05:28:05;;;;;;;4.10;2.30;;;12.10;99.90;;;;;;5061270;28;20108;-86
2023/08/09 05:30:31;;;;;;;2.70;1.92;;;12.30;99.90;;;;;;5064936;28;20027;-87
2023/08/09 05:32:58;;;;;;;7.13;2.15;;;12.30;99.90;;;;;;5061966;28;20021;-88
2023/08/09 05:35:26;;;;;;;4.20;2.08;;;12.40;99.90;;;;;;5066062;28;20408;-86
2023/08/09 05:37:52;;;;;;;3.78;2.00;;;12.40;99.90;;;;;;5068338;28;20020;-88
2023/08/09 05:40:18;;;;;;;6.03;1.90;;;12.50;99.90;;;;;;5067045;28;20040;-95
2023/08/09 05:42:43;;;;;;;3.72;2.05;;;12.50;99.90;;;;;;5068130;28;20059;-87
2023/08/09 05:45:09;;;;;;;4.32;2.33;;;12.60;99.90;;;;;;5050308;28;20037;-86
2023/08/09 05:47:35;;;;;;;6.18;2.35;;;12.60;99.90;;;;;;5067941;28;20021;-86
2023/08/09 05:50:00;;;;;;;5.82;2.00;;;12.70;99.90;;;;;;5066447;28;20089;-87
2023/08/09 05:52:26;;;;;;;5.00;2.00;;;12.70;99.90;;;;;;5068467;28;20032;-88
2023/08/09 05:54:52;;;;;;;4.28;2.05;;;12.70;99.90;;;;;;5066047;28;20389;-85
2023/08/09 05:57:18;;;;;;;10.40;1.90;;;12.70;99.90;;;;;;5062028;28;20032;-91
2023/08/09 05:59:43;;;;;;;2.65;1.90;;;12.70;99.90;;;;;;5064550;28;20369;-86
2023/08/09 06:02:09;;;;;;;6.15;2.40;;;12.70;99.90;;;;;;5058647;28;20024;-87
2023/08/09 06:04:35;;;;;;;2.85;1.70;;;12.70;99.90;;;;;;5066237;28;20478;-86
2023/08/09 06:07:01;;;;;;;7.25;2.60;;;12.70;99.90;;;;;;5048425;28;20103;-88
2023/08/09 06:09:26;;;;;;;4.20;1.98;;;12.80;99.90;;;;;;5063079;28;20047;-86
2023/08/09 06:11:52;;;;;;;4.15;1.85;;;12.80;99.90;;;;;;5064036;28;20025;-83
2023/08/09 06:14:18;;;;;;;3.63;1.90;;;12.90;99.90;;;;;;5056914;28;20466;-90
2023/08/09 06:16:47;;;;;;;7.10;2.00;;;12.80;99.90;;;;;;5067697;28;20098;-86
2023/08/09 06:19:13;;;;;;;5.63;2.03;;;12.80;99.90;;;;;;5061458;28;20458;-87
2023/08/09 06:21:39;;;;;;;11.30;2.28;;;12.90;99.90;;;;;;5062372;28;20552;-87
2023/08/09 06:24:05;;;;;;;8.05;2.05;;;12.90;99.90;;;;;;5066760;28;20143;-88
2023/08/09 06:26:32;;;;;;;4.47;1.50;;;13.00;99.90;;;;;;5068767;28;20380;-90
2023/08/09 06:28:57;;;;;;;7.63;2.05;;;13.00;99.90;;;;;;5066201;28;20029;-86
2023/08/09 06:31:23;;;;;;;6.63;2.13;;;13.10;99.90;;;;;;5064735;28;20021;-86
2023/08/09 06:33:49;;;;;;;10.55;2.42;;;13.10;99.90;;;;;;5061562;28;20367;-88
2023/08/09 06:36:14;;;;;;;7.50;1.55;;;13.10;99.90;;;;;;5064596;28;20095;-87
2023/08/09 06:38:40;;;;;;;8.05;1.50;;;13.10;99.90;;;;;;5073710;28;20090;-88
2023/08/09 06:41:06;;;;;;;8.32;2.38;;;13.10;99.90;;;;;;5047058;28;20128;-91
2023/08/09 06:43:31;;;;;;;8.43;2.00;;;13.10;99.90;;;;;;5067251;28;20039;-87
2023/08/09 06:46:01;;;;;;;7.15;1.83;;;13.20;99.90;;;;;;5065110;28;20044;-85
2023/08/09 06:48:29;;;;;;;2.13;1.50;;;13.20;99.90;;;;;;5060767;28;20093;-85
2023/08/09 06:50:58;;;;;;;8.65;1.83;;;13.20;99.90;;;;;;5065860;28;20500;-86
2023/08/09 06:53:24;;;;;;;8.07;1.58;;;13.30;99.90;;;;;;5049097;28;20043;-85
2023/08/09 06:55:50;;;;;;;2.00;1.10;;;13.30;99.90;;;;;;5067403;28;20028;-86
2023/08/09 06:58:16;;;;;;;6.13;1.58;;;13.30;99.90;;;;;;5066288;28;20059;-87
2023/08/09 07:00:45;;;;;;;4.30;2.08;;;13.30;99.90;;;;;;5065539;28;20032;-87
2023/08/09 07:03:10;;;;;;;7.65;1.40;;;13.30;99.90;;;;;;5066145;28;20039;-86
2023/08/09 07:05:36;;;;;;;7.85;1.77;;;13.30;99.90;;;;;;5067402;28;20359;-85
2023/08/09 07:08:02;;;;;;;7.80;1.95;;;13.30;99.90;;;;;;5049201;28;20078;-84
2023/08/09 07:10:27;;;;;;;5.85;1.73;;;13.40;99.90;;;;;;5066936;28;20103;-84
2023/08/09 07:12:53;;;;;;;8.35;1.98;;;13.40;99.90;;;;;;5066543;28;20032;-85
2023/08/09 07:15:19;;;;;;;8.00;1.65;;;13.40;99.90;;;;;;5066804;28;20021;-85
2023/08/09 07:17:46;;;;;;;11.23;1.67;;;13.50;99.90;;;;;;5064276;28;20351;-84
2023/08/09 07:20:14;;;;;;;6.78;1.80;;;13.50;99.90;;;;;;5066075;28;20475;-86
2023/08/09 07:22:40;;;;;;;11.00;1.88;;;13.50;99.90;;;;;;5040942;28;20381;-84
2023/08/09 07:25:09;;;;;;;5.38;1.58;;;13.50;99.90;;;;;;5066120;28;20036;-85
2023/08/09 07:27:44;;;;;;;12.43;1.80;;;13.60;99.90;;;;;;5065711;28;20028;-85
2023/08/09 07:30:11;;;;;;;11.43;1.90;;;13.60;99.90;;;;;;5066456;28;20025;-85
2023/08/09 07:32:38;;;;;;;9.77;1.65;;;13.70;99.90;;;;;;5062268;28;20036;-84
2023/08/09 07:35:05;;;;;;;8.40;1.88;;;13.70;99.90;;;;;;5065772;28;20107;-86
2023/08/09 07:37:32;;;;;;;5.47;1.40;;;13.70;99.90;;;;;;5066652;28;20025;-91
2023/08/09 07:39:58;;;;;;;8.88;1.35;;;13.70;99.90;;;;;;5068345;28;20051;-89
2023/08/09 07:42:24;;;;;;;9.38;1.90;;;13.70;99.90;;;;;;5066001;28;20460;-87
2023/08/09 07:44:50;;;;;;;8.68;1.65;;;13.70;99.90;;;;;;5069031;28;20028;-84
2023/08/09 07:47:17;;;;;;;3.30;0.98;;;13.80;99.90;;;;;;5067842;28;20527;-85
2023/08/09 07:49:42;;;;;;;4.72;1.40;;;13.90;99.90;;;;;;5068115;28;20008;-84
2023/08/09 07:52:08;;;;;;;10.02;1.77;;;13.90;99.90;;;;;;5070711;28;20029;-84
2023/08/09 07:54:34;;;;;;;15.85;2.42;;;14.00;99.90;;;;;;5053185;28;20051;-85
2023/08/09 07:56:59;;;;;;;10.70;1.50;;;14.10;99.90;;;;;;5070903;28;20031;-84
2023/08/09 07:59:25;;;;;;;7.75;1.45;;;14.00;99.90;;;;;;5061593;28;20025;-84
2023/08/09 08:01:50;;;;;;;5.85;1.17;;;13.90;99.90;;;;;;5060636;28;20082;-85
2023/08/09 08:04:16;;;;;;;7.70;2.10;;;13.90;99.90;;;;;;5065457;28;20028;-87
2023/08/09 08:06:42;;;;;;;3.80;1.30;;;13.90;99.90;;;;;;5068444;28;20351;-83
2023/08/09 08:09:12;;;;;;;8.93;1.88;;;13.90;99.90;;;;;;5067560;28;20385;-84
2023/08/09 08:11:41;;;;;;;9.55;1.75;;;14.00;99.90;;;;;;5069743;28;20013;-86
2023/08/09 08:14:08;;;;;;;9.80;1.80;;;14.10;99.90;;;;;;5069724;28;20024;-87
2023/08/09 08:16:34;;;;;;;6.10;1.35;;;14.20;99.90;;;;;;5068647;28;20031;-83
2023/08/09 08:19:00;;;;;;;8.85;1.50;;;14.30;99.90;;;;;;5070197;28;20017;-85
2023/08/09 08:21:25;;;;;;;16.60;1.85;;;14.40;99.90;;;;;;5070188;28;20084;-83
2023/08/09 08:23:52;;;;;;;5.75;1.60;;;14.40;99.90;;;;;;5069796;28;20036;-83
2023/08/09 08:26:18;;;;;;;4.82;1.30;;;14.50;99.90;;;;;;5069358;28;20472;-86
2023/08/09 08:28:44;;;;;;;7.05;1.40;;;14.60;99.90;;;;;;5064796;28;20025;-84
2023/08/09 08:31:10;;;;;;;6.65;1.77;;;14.60;99.90;;;;;;5067624;28;20031;-84
2023/08/09 08:33:35;;;;;;;4.57;1.55;;;14.60;99.90;;;;;;5069833;28;20028;-84
2023/08/09 08:36:04;;;;;;;11.43;1.85;;;14.50;99.90;;;;;;5067357;28;20024;-91
2023/08/09 08:38:30;;;;;;;7.10;2.08;;;14.50;99.90;;;;;;5069456;28;20462;-86
2023/08/09 08:40:56;;;;;;;10.77;2.20;;;14.50;99.90;;;;;;5066647;28;20093;-84
2023/08/09 08:43:23;;;;;;;5.70;1.30;;;14.50;99.90;;;;;;5063726;28;20138;-84
2023/08/09 08:45:49;;;;;;;6.22;1.63;;;14.50;99.90;;;;;;5068973;28;20466;-84
2023/08/09 08:48:17;;;;;;;7.35;1.30;;;14.60;99.90;;;;;;5069440;28;20025;-82
2023/08/09 08:50:43;;;;;;;8.77;1.73;;;14.80;99.90;;;;;;5064807;28;20031;-83
2023/08/09 08:53:11;;;;;;;4.18;1.50;;;14.80;99.90;;;;;;5067711;28;20064;-84
2023/08/09 08:55:37;;;;;;;18.98;1.77;;;14.90;99.90;;;;;;5069437;28;20104;-83
2023/08/09 08:58:03;;;;;;;18.27;2.78;;;15.00;99.90;;;;;;5069444;28;20029;-84
2023/08/09 09:00:29;;;;;;;8.73;1.88;;;15.10;99.90;;;;;;5068273;28;20462;-82
2023/08/09 09:02:56;;;;;;;8.98;1.65;;;15.20;99.90;;;;;;5068843;28;20035;-84
2023/08/09 09:05:23;;;;;;;6.63;1.70;;;15.30;99.90;;;;;;5068084;28;20092;-83
2023/08/09 09:07:50;;;;;;;4.90;1.40;;;15.40;99.90;;;;;;5061696;28;20028;-84
2023/08/09 09:10:19;;;;;;;8.35;1.30;;;15.50;99.90;;;;;;5068424;28;20020;-84
2023/08/09 09:12:45;;;;;;;7.60;1.38;;;15.50;99.90;;;;;;5064708;28;20020;-83
2023/08/09 09:15:12;;;;;;;6.03;1.13;;;15.60;99.90;;;;;;5068953;28;20052;-83
2023/08/09 09:17:39;;;;;;;12.55;1.70;;;15.60;99.90;;;;;;5069070;28;20020;-82
2023/08/09 09:20:15;;;;;;;4.88;1.05;;;15.60;99.90;;;;;;5066440;28;20028;-83
2023/08/09 09:22:40;;;;;;;7.15;1.48;;;15.60;99.90;;;;;;5064912;28;20032;-82
2023/08/09 09:25:10;;;;;;;2.90;1.30;;;15.60;99.90;;;;;;5067962;28;20474;-83
2023/08/09 09:27:37;;;;;;;3.92;0.95;;;15.70;99.90;;;;;;5066400;28;20176;-82
2023/08/09 09:30:13;;;;;;;4.53;1.05;;;15.70;99.90;;;;;;5068337;28;20078;-89
2023/08/09 09:33:02;;;;;;;3.65;1.05;;;15.70;99.90;;;;;;5068730;28;20397;-84
2023/08/09 09:35:30;;;;;;;8.15;1.42;;;15.70;99.90;;;;;;5069237;28;20512;-83
2023/08/09 09:37:58;;;;;;;6.63;1.60;;;15.70;99.90;;;;;;5067629;28;20082;-84
2023/08/09 09:40:35;;;;;;;6.65;1.27;;;15.80;99.90;;;;;;5066107;28;20357;-83
2023/08/09 09:43:03;;;;;;;3.25;0.98;;;16.00;99.90;;;;;;5068497;28;20028;-83
2023/08/09 09:45:30;;;;;;;8.75;1.40;;;16.10;99.90;;;;;;5066481;28;20025;-82
2023/08/09 09:47:57;;;;;;;2.83;0.82;;;16.10;99.90;;;;;;5068054;28;20111;-81
2023/08/09 09:50:28;;;;;;;3.88;0.90;;;16.10;99.90;;;;;;5068085;28;20029;-82
2023/08/09 09:52:54;;;;;;;5.07;1.08;;;16.10;99.90;;;;;;5067354;28;20020;-82
2023/08/09 09:55:25;;;;;;;7.70;0.95;;;16.20;99.90;;;;;;5068071;28;20116;-82
2023/08/09 09:57:52;;;;;;;3.33;1.30;;;16.20;99.90;;;;;;5067042;28;20032;-82
2023/08/09 10:00:21;;;;;;;4.47;1.00;;;16.20;99.90;;;;;;5067819;28;20056;-83
2023/08/09 10:02:50;;;;;;;10.15;1.92;;;16.20;99.90;;;;;;5067566;28;20108;-83
2023/08/09 10:05:43;;;;;;;3.42;0.98;;;16.30;99.90;;;;;;5068073;28;20354;-84
2023/08/09 10:08:10;;;;;;;9.65;1.73;;;16.40;99.90;;;;;;5061341;28;20051;-82
2023/08/09 10:10:37;;;;;;;6.53;1.15;;;16.30;99.90;;;;;;5068174;28;20029;-82
2023/08/09 10:13:05;;;;;;;6.38;1.17;;;16.30;99.90;;;;;;5048830;28;20172;-86
2023/08/09 10:15:40;;;;;;;3.35;1.17;;;16.20;99.90;;;;;;5066231;28;20032;-82
2023/08/09 10:18:15;;;;;;;5.82;1.30;;;16.10;99.90;;;;;;5067592;28;20153;-81
2023/08/09 10:20:50;;;;;;;6.28;1.35;;;16.10;99.90;;;;;;5066382;28;20103;-83
2023/08/09 10:23:24;;;;;;;6.93;1.38;;;16.20;99.90;;;;;;5067817;28;20457;-84
2023/08/09 10:25:52;;;;;;;8.93;1.08;;;16.30;99.90;;;;;;5066520;28;20032;-82
2023/08/09 10:28:19;;;;;;;4.90;1.27;;;16.40;99.90;;;;;;5066687;28;20033;-84
2023/08/09 10:30:51;;;;;;;1.70;0.90;;;16.50;99.90;;;;;;5067701;28;20111;-82
2023/08/09 10:33:18;;;;;;;2.92;1.15;;;16.70;99.90;;;;;;5067061;28;20036;-85
2023/08/09 10:35:50;;;;;;;6.50;1.40;;;16.80;99.90;;;;;;5066906;28;20028;-82
2023/08/09 10:38:38;;;;;;;3.05;1.02;;;16.80;99.90;;;;;;5066848;28;20032;-81
2023/08/09 10:41:10;;;;;;;5.72;1.10;;;16.80;99.90;;;;;;5058533;28;20459;-85
2023/08/09 10:43:35;;;;;;;2.00;0.98;;;16.90;99.90;;;;;;5066232;28;20033;-79
2023/08/09 10:46:24;;;;;;;4.82;0.75;;;16.90;99.90;;;;;;5065014;28;20029;-82
2023/08/09 10:48:58;;;;;;;5.60;0.90;;;16.80;99.90;;;;;;5063316;28;20478;-82
2023/08/09 10:51:24;;;;;;;5.90;1.00;;;16.70;99.90;;;;;;5067445;28;20055;-82
2023/08/09 10:54:06;;;;;;;4.28;0.90;;;16.70;99.90;;;;;;5066291;28;20056;-83
2023/08/09 10:56:33;;;;;;;8.98;0.88;;;16.80;99.90;;;;;;5067628;28;20043;-81
2023/08/09 10:59:27;;;;;;;2.17;0.80;;;16.90;99.90;;;;;;5064556;28;20024;-83
2023/08/09 11:01:54;;;;;;;5.75;0.98;;;17.00;99.90;;;;;;5064580;28;20475;-81
2023/08/09 11:04:20;;;;;;;7.28;1.00;;;17.10;99.90;;;;;;5062331;28;20533;-83
2023/08/09 11:06:50;;;;;;;5.70;1.25;;;17.10;99.90;;;;;;5065520;28;20027;-83
2023/08/09 11:09:18;;;;;;;3.78;1.00;;;17.00;99.90;;;;;;5067022;28;20470;-86
2023/08/09 11:11:49;;;;;;;7.53;1.30;;;17.00;99.90;;;;;;5065566;28;20065;-82
2023/08/09 11:14:18;;;;;;;2.10;1.20;;;17.00;99.90;;;;;;5056431;28;20027;-83
2023/08/09 11:16:45;;;;;;;6.13;1.10;;;17.10;99.90;;;;;;5064461;28;20107;-82
2023/08/09 11:19:16;;;;;;;3.78;1.25;;;17.20;99.90;;;;;;5048126;28;20048;-83
2023/08/09 11:21:54;;;;;;;3.38;0.90;;;17.30;99.90;;;;;;5049242;28;20090;-82
2023/08/09 11:24:21;;;;;;;4.20;1.00;;;17.40;99.90;;;;;;5058078;28;20103;-83
2023/08/09 11:26:53;;;;;;;4.45;1.27;;;17.50;99.90;;;;;;5066556;28;20017;-83
2023/08/09 11:29:20;;;;;;;3.15;1.05;;;17.60;99.90;;;;;;5064924;28;20362;-82
2023/08/09 11:31:48;;;;;;;4.88;1.10;;;17.70;99.90;;;;;;5066156;28;20465;-85
2023/08/09 11:34:16;;;;;;;2.92;0.52;;;17.70;99.90;;;;;;5066129;28;20025;-83
2023/08/09 11:36:43;;;;;;;3.45;1.02;;;17.70;99.90;;;;;;5066615;28;20029;-83
2023/08/09 11:39:10;;;;;;;2.20;0.90;;;17.70;99.90;;;;;;5064910;28;20103;-83
2023/08/09 11:41:56;;;;;;;7.65;2.35;;;17.70;99.90;;;;;;5064828;28;20040;-83
2023/08/09 11:44:22;;;;;;;2.60;1.10;;;17.70;99.90;;;;;;5065731;28;20393;-86
2023/08/09 11:46:51;;;;;;;6.35;1.05;;;17.70;99.90;;;;;;5064946;28;20051;-85
2023/08/09 11:49:17;;;;;;;4.00;1.20;;;17.80;99.90;;;;;;5063794;28;20027;-85
2023/08/09 11:51:42;;;;;;;1.90;0.85;;;17.90;99.90;;;;;;5063876;28;20033;-82
2023/08/09 11:54:09;;;;;;;5.68;1.15;;;17.90;99.90;;;;;;5063853;28;20024;-83
2023/08/09 11:56:37;;;;;;;4.13;1.42;;;18.00;99.90;;;;;;5062766;28;20100;-84
2023/08/09 11:59:04;;;;;;;3.00;0.90;;;18.00;99.90;;;;;;5059513;28;20521;-90
2023/08/09 12:01:34;;;;;;;1.60;0.80;;;18.00;99.90;;;;;;5064239;28;20036;-84
2023/08/09 12:04:04;;;;;;;3.05;1.20;;;18.10;99.90;;;;;;5062921;28;20028;-84
2023/08/09 12:06:57;;;;;;;3.78;0.80;;;18.10;99.90;;;;;;5062431;28;20040;-83
2023/08/09 12:09:31;;;;;;;4.60;1.10;;;18.20;99.90;;;;;;5063662;28;20055;-84
2023/08/09 12:12:10;;;;;;;5.38;1.40;;;18.20;99.90;;;;;;5040608;28;20021;-83
2023/08/09 12:14:40;;;;;;;2.92;0.82;;;18.20;99.90;;;;;;5036037;28;20024;-83
2023/08/09 12:17:06;;;;;;;5.63;1.48;;;18.10;99.90;;;;;;5065426;28;20156;-84
2023/08/09 12:19:32;;;;;;;2.33;0.85;;;18.10;99.90;;;;;;5065759;28;20031;-84
2023/08/09 12:21:59;;;;;;;8.13;0.90;;;17.90;99.90;;;;;;5064927;28;20104;-85
2023/08/09 12:24:25;;;;;;;6.40;1.13;;;18.00;99.90;;;;;;5065614;28;20040;-83
2023/08/09 12:26:51;;;;;;;8.02;0.90;;;18.00;99.90;;;;;;5068652;28;20027;-82
2023/08/09 12:29:17;;;;;;;5.53;1.58;;;18.20;99.90;;;;;;5067807;28;20029;-83
2023/08/09 12:31:43;;;;;;;5.90;0.95;;;18.30;99.90;;;;;;5069930;28;20020;-88
2023/08/09 12:34:11;;;;;;;8.40;1.38;;;18.30;99.90;;;;;;5064068;28;20036;-83
2023/08/09 12:36:37;;;;;;;3.30;1.02;;;18.40;99.90;;;;;;5069782;28;20135;-85
2023/08/09 12:39:03;;;;;;;1.40;0.75;;;18.60;99.90;;;;;;5068888;28;20115;-84
2023/08/09 12:41:29;;;;;;;8.23;1.40;;;18.80;99.90;;;;;;5070229;28;20382;-83
2023/08/09 12:43:55;;;;;;;5.10;0.88;;;19.00;99.90;;;;;;5069603;28;20033;-81
2023/08/09 12:46:20;;;;;;;2.03;1.00;;;19.10;99.90;;;;;;5069122;28;20028;-86